Aérodrome :
LOGIN :

S'inscrire | Disclaimer

   EN    FR    IT 

 










Légende :    VFR   VFR Marginal   IFR   IFR Intensif   IFR Très Intensif
Visi : 
Plafond : 
>= 8 km
>= 3000ft
5 à 8 km
1000 à 3000 ft
1500m à 5 km
500 à 1000 ft
800 à 1500m
200 à 500 ft
< 800m
< 200 ft
Symboles :   Orages  Brouillard  Fortes neiges  Fortes précipitations  Vent > 20 kt
SIGMETs :   Divers  Orages  Givrage  Turbulence  Onde Orograph.  Cendres Volcan.






- Altitude de l'aérodrome : 465 ft


ENFB - Statfjord B Platform

DERNIER METAR :
  • 270150Z AUTO 22018KT 9999NDV SCT013/// BKN120/// 04/M01 Q0987 W///S5

METARs EXPIRÉS :
  • 270120Z AUTO 19019KT 9999NDV -SHRA BKN020/// BKN079/// 04/02 Q0987 W///S5
  • 270050Z AUTO 20017KT 9999NDV -SHRA BKN020/// 04/01 Q0987 W///S5
  • 270020Z AUTO VRB09KT 9999NDV -RA SCT029/// BKN100/// 04/00 Q0988 W///S5
  • 262350Z AUTO 22002KT 9999NDV FEW080/// BKN110/// 04/01 Q0988 W///S5
  • 262320Z AUTO 22001KT 9999NDV FEW050/// SCT055/// BKN083/// 04/01 Q0988 W///S4

TAF N/A



MET'MAP, la Météo Aéronautique d'un coup d'oeil ! - Copyright ORBIFLY Décembre 2007 - Disclaimer

ORBIFLY MET'MAP TEAM :

Programmation & Développement : Alexandra Zaïnal
Sur une idée originale de : Baudouin d'Aumeries
Assistance à la programmation : Marc-Olivier Méhu
Soutien technique & logistique : Manuel Goepfert

Contact : metmap@orbifly.com




SOURCES & CREDITS :

   NOAA